Time;durP1;ratioP1;P1;durP2;ratioP2;P2;SDS_P1;SDS_P2;PMS_P1;PMS_P2;Temp;Humidity;BMP_temperature;BMP_pressure;BME280_temperature;BME280_humidity;BME280_pressure;Samples;Min_cycle;Max_cycle;Signal;HPM_P1;HPM_P2
2024/04/14 00:03:06;;;;;;;3.80;3.50;;;;;;;;;;6657918;21;20191;-82
2024/04/14 00:06:08;;;;;;;5.40;3.70;;;;;;;;;;6646676;21;20220;-82
2024/04/14 00:09:16;;;;;;;4.00;3.70;;;;;;;;;;6624008;21;20237;-82
2024/04/14 00:16:23;;;;;;;4.40;4.00;;;;;;;;;;6605013;21;20200;-82
2024/04/14 00:27:56;;;;;;;4.50;4.10;;;;;;;;;;6500882;22;20198;-83
2024/04/14 00:35:06;;;;;;;6.53;3.90;;;;;;;;;;6350308;22;20268;-82
2024/04/14 00:38:12;;;;;;;4.40;4.00;;;;;;;;;;6317924;22;20345;-82
2024/04/14 00:42:12;;;;;;;4.07;3.60;;;;;;;;;;6301462;22;20218;-82
2024/04/14 00:49:18;;;;;;;3.90;3.60;;;;;;;;;;6350921;22;20209;-82
2024/04/14 00:52:14;;;;;;;4.10;3.60;;;;;;;;;;6347818;22;20276;-82
2024/04/14 00:55:45;;;;;;;4.00;3.60;;;;;;;;;;6351711;22;20300;-82
2024/04/14 00:59:21;;;;;;;5.73;3.90;;;;;;;;;;6449319;22;20210;-82
2024/04/14 01:06:34;;;;;;;4.07;3.60;;;;;;;;;;6254130;22;20316;-82
2024/04/14 01:21:10;;;;;;;4.87;4.37;;;;;;;;;;6441882;22;20231;-82
2024/04/14 01:24:41;;;;;;;5.17;4.67;;;;;;;;;;6299667;22;20234;-82
2024/04/14 01:27:35;;;;;;;4.60;4.20;;;;;;;;;;6301595;22;20258;-82
2024/04/14 01:34:17;;;;;;;4.47;4.07;;;;;;;;;;6302140;22;20204;-82
2024/04/14 01:41:51;;;;;;;4.70;4.20;;;;;;;;;;6452799;22;20206;-83
2024/04/14 01:44:55;;;;;;;4.30;4.00;;;;;;;;;;6445842;22;20298;-82
2024/04/14 02:14:53;;;;;;;5.13;4.60;;;;;;;;;;6485982;21;20268;-82
2024/04/14 02:25:57;;;;;;;5.27;4.87;;;;;;;;;;6606647;21;20270;-82
2024/04/14 02:28:52;;;;;;;5.03;4.60;;;;;;;;;;6574308;21;20313;-82
2024/04/14 02:32:19;;;;;;;4.80;4.40;;;;;;;;;;6600090;21;20249;-83
2024/04/14 02:39:14;;;;;;;5.10;4.70;;;;;;;;;;6605909;21;20187;-82
2024/04/14 02:41:59;;;;;;;5.00;4.60;;;;;;;;;;6557071;21;20250;-83
2024/04/14 02:45:05;;;;;;;4.70;4.30;;;;;;;;;;6513343;21;20217;-83
2024/04/14 02:48:21;;;;;;;4.97;4.40;;;;;;;;;;6598290;21;20302;-83
2024/04/14 02:55:21;;;;;;;4.77;4.43;;;;;;;;;;6584864;21;20288;-84
2024/04/14 02:58:33;;;;;;;5.20;4.30;;;;;;;;;;6478053;22;20365;-83
2024/04/14 03:05:48;;;;;;;5.07;4.67;;;;;;;;;;6454746;22;20200;-83
2024/04/14 03:13:01;;;;;;;5.43;4.87;;;;;;;;;;6455313;22;20203;-85
2024/04/14 03:16:39;;;;;;;5.53;5.07;;;;;;;;;;6352348;22;20335;-83
2024/04/14 03:24:00;;;;;;;4.73;4.27;;;;;;;;;;6463178;22;20247;-84
2024/04/14 03:35:27;;;;;;;5.20;4.80;;;;;;;;;;6356153;22;20328;-84
2024/04/14 03:46:50;;;;;;;5.17;4.77;;;;;;;;;;6507647;22;20198;-83
2024/04/14 03:53:17;;;;;;;4.93;4.53;;;;;;;;;;6500337;22;20314;-84
2024/04/14 04:04:55;;;;;;;5.40;5.00;;;;;;;;;;6506578;22;20190;-83
2024/04/14 04:16:28;;;;;;;5.00;4.60;;;;;;;;;;6205468;23;20257;-83
2024/04/14 04:23:19;;;;;;;5.17;4.67;;;;;;;;;;6369982;22;20301;-84
2024/04/14 04:34:32;;;;;;;4.80;4.50;;;;;;;;;;6346469;22;20307;-83
2024/04/14 04:37:20;;;;;;;4.93;4.43;;;;;;;;;;6343427;22;20311;-84
2024/04/14 04:40:27;;;;;;;4.97;4.47;;;;;;;;;;6392399;22;20265;-83
2024/04/14 04:47:12;;;;;;;6.93;4.97;;;;;;;;;;6496694;22;20249;-84
2024/04/14 04:49:52;;;;;;;5.13;4.63;;;;;;;;;;6572982;21;20232;-82
2024/04/14 04:52:51;;;;;;;5.93;4.87;;;;;;;;;;6538908;21;20247;-82
2024/04/14 04:55:36;;;;;;;5.40;4.63;;;;;;;;;;6607028;21;20224;-82
2024/04/14 04:58:12;;;;;;;5.27;4.77;;;;;;;;;;6696191;21;20244;-82
2024/04/14 05:00:59;;;;;;;5.00;4.60;;;;;;;;;;6703308;21;20269;-82
2024/04/14 05:04:24;;;;;;;4.70;4.40;;;;;;;;;;6697947;21;20301;-82
2024/04/14 05:07:20;;;;;;;5.30;4.40;;;;;;;;;;6705034;21;20267;-83
2024/04/14 05:10:06;;;;;;;4.63;4.33;;;;;;;;;;6659628;21;20286;-82
2024/04/14 05:12:49;;;;;;;5.10;4.50;;;;;;;;;;6705066;21;20301;-82
2024/04/14 05:15:22;;;;;;;4.50;4.10;;;;;;;;;;6705110;21;20270;-82
2024/04/14 05:18:19;;;;;;;4.20;3.80;;;;;;;;;;6703873;21;20276;-82
2024/04/14 05:21:05;;;;;;;4.50;4.10;;;;;;;;;;6694208;21;20229;-82
2024/04/14 05:23:50;;;;;;;4.23;3.90;;;;;;;;;;6662803;21;20237;-82
2024/04/14 05:26:34;;;;;;;3.73;3.43;;;;;;;;;;6701880;21;20228;-82
2024/04/14 05:29:15;;;;;;;4.33;3.93;;;;;;;;;;6703284;21;20259;-83
2024/04/14 05:31:55;;;;;;;4.30;3.90;;;;;;;;;;6702428;21;20242;-82
2024/04/14 05:34:33;;;;;;;3.80;3.50;;;;;;;;;;6735251;21;20280;-82
2024/04/14 05:37:12;;;;;;;4.13;3.73;;;;;;;;;;6706820;21;20275;-82
2024/04/14 05:39:55;;;;;;;3.97;3.67;;;;;;;;;;6704666;21;20269;-82
2024/04/14 05:42:33;;;;;;;4.53;4.13;;;;;;;;;;6752598;21;20214;-82
2024/04/14 05:45:10;;;;;;;4.30;3.90;;;;;;;;;;6709191;21;20275;-82
2024/04/14 05:47:44;;;;;;;3.70;3.50;;;;;;;;;;6754907;21;20217;-82
2024/04/14 05:50:12;;;;;;;3.73;3.50;;;;;;;;;;6707873;21;20225;-82
2024/04/14 05:52:42;;;;;;;4.63;4.23;;;;;;;;;;6755233;21;20233;-82
2024/04/14 05:55:16;;;;;;;3.80;3.60;;;;;;;;;;6706629;21;20624;-81
2024/04/14 05:57:50;;;;;;;3.97;3.67;;;;;;;;;;6756076;21;20732;-82
2024/04/14 06:00:18;;;;;;;4.40;4.00;;;;;;;;;;6708863;21;20226;-81
2024/04/14 06:02:49;;;;;;;4.70;4.10;;;;;;;;;;6710691;21;20326;-82
2024/04/14 06:05:17;;;;;;;4.33;3.93;;;;;;;;;;6708341;21;20314;-81
2024/04/14 06:07:47;;;;;;;4.30;3.70;;;;;;;;;;6707406;21;20325;-81
2024/04/14 06:10:17;;;;;;;3.67;3.47;;;;;;;;;;6707131;21;20221;-81
2024/04/14 06:12:44;;;;;;;4.40;4.10;;;;;;;;;;6753512;21;20260;-81
2024/04/14 06:15:15;;;;;;;3.97;3.67;;;;;;;;;;6703873;21;20183;-81
2024/04/14 06:17:43;;;;;;;3.97;3.67;;;;;;;;;;6746963;21;20311;-82
2024/04/14 06:20:11;;;;;;;4.33;3.60;;;;;;;;;;6748502;21;20252;-82
2024/04/14 06:23:05;;;;;;;5.20;4.80;;;;;;;;;;6753046;21;20241;-81
2024/04/14 06:32:19;;;;;;;4.30;4.00;;;;;;;;;;6849279;21;20340;-93
2024/04/14 06:34:46;;;;;;;4.40;4.00;;;;;;;;;;6757676;21;20280;-92
2024/04/14 06:37:15;;;;;;;3.90;3.60;;;;;;;;;;6803686;21;20696;-93
2024/04/14 06:39:43;;;;;;;4.13;3.83;;;;;;;;;;6757720;21;20228;-93
2024/04/14 06:42:11;;;;;;;3.97;3.67;;;;;;;;;;6757661;21;20240;-93
2024/04/14 06:44:41;;;;;;;3.90;3.60;;;;;;;;;;6758848;21;21138;-93
2024/04/14 06:47:09;;;;;;;3.83;3.53;;;;;;;;;;6757182;21;20228;-92
2024/04/14 06:49:41;;;;;;;4.37;3.97;;;;;;;;;;6759131;21;20224;-93
2024/04/14 06:52:12;;;;;;;3.93;3.50;;;;;;;;;;6756015;21;20304;-94
2024/04/14 06:54:40;;;;;;;4.20;3.80;;;;;;;;;;6804991;21;20251;-95
2024/04/14 06:57:07;;;;;;;4.10;3.70;;;;;;;;;;6756942;21;20241;-94
2024/04/14 06:59:35;;;;;;;4.13;3.77;;;;;;;;;;6703625;21;20225;-92
2024/04/14 07:02:06;;;;;;;4.30;3.90;;;;;;;;;;6704752;21;20650;-92
2024/04/14 07:04:36;;;;;;;4.33;3.47;;;;;;;;;;6795009;21;20220;-92
2024/04/14 07:07:04;;;;;;;4.40;3.80;;;;;;;;;;6703437;21;20259;-92
2024/04/14 07:09:32;;;;;;;3.80;3.50;;;;;;;;;;6749058;21;20223;-91
2024/04/14 07:12:02;;;;;;;3.93;3.50;;;;;;;;;;6748738;21;20226;-92
2024/04/14 07:14:30;;;;;;;3.47;3.17;;;;;;;;;;6703076;21;20308;-92
2024/04/14 07:16:58;;;;;;;3.87;3.37;;;;;;;;;;6703918;21;20694;-92
2024/04/14 07:19:28;;;;;;;3.40;3.10;;;;;;;;;;6747731;21;20228;-91
2024/04/14 07:21:58;;;;;;;3.10;2.90;;;;;;;;;;6747336;21;20230;-91
2024/04/14 07:24:26;;;;;;;4.00;3.17;;;;;;;;;;6702175;21;20219;-91
2024/04/14 07:26:57;;;;;;;3.20;2.90;;;;;;;;;;6748140;21;20638;-91
2024/04/14 07:29:27;;;;;;;3.77;3.43;;;;;;;;;;6703142;21;20279;-92
2024/04/14 07:31:55;;;;;;;3.37;3.17;;;;;;;;;;6747899;21;20239;-91
2024/04/14 07:34:23;;;;;;;4.20;3.50;;;;;;;;;;6748157;21;20231;-91
2024/04/14 07:36:53;;;;;;;3.60;3.20;;;;;;;;;;6748035;21;20253;-91
2024/04/14 07:39:20;;;;;;;4.05;3.20;;;;;;;;;;6747520;21;20233;-91
2024/04/14 07:41:48;;;;;;;4.07;3.40;;;;;;;;;;6747936;21;20235;-91
2024/04/14 07:44:15;;;;;;;4.53;2.90;;;;;;;;;;6747031;21;20223;-91
2024/04/14 07:46:43;;;;;;;3.08;2.80;;;;;;;;;;6746012;21;20232;-91
2024/04/14 07:49:10;;;;;;;3.78;2.70;;;;;;;;;;6702621;21;20736;-91
2024/04/14 07:51:41;;;;;;;2.70;2.50;;;;;;;;;;6702263;21;20229;-91
2024/04/14 07:54:09;;;;;;;3.10;2.60;;;;;;;;;;6747399;21;20217;-89
2024/04/14 07:56:37;;;;;;;3.67;2.60;;;;;;;;;;6746374;21;20294;-88
2024/04/14 07:59:04;;;;;;;2.72;2.13;;;;;;;;;;6746185;21;20222;-88
2024/04/14 08:01:32;;;;;;;2.20;1.98;;;;;;;;;;6701014;21;20234;-89
2024/04/14 08:04:01;;;;;;;3.50;2.00;;;;;;;;;;6745201;21;20233;-88
2024/04/14 08:06:29;;;;;;;3.53;2.10;;;;;;;;;;6700801;21;20310;-89
2024/04/14 08:08:57;;;;;;;4.10;2.20;;;;;;;;;;6746823;21;20247;-88
2024/04/14 08:11:26;;;;;;;4.60;2.35;;;;;;;;;;6788609;21;20217;-88
2024/04/14 08:13:55;;;;;;;2.40;2.17;;;;;;;;;;6698477;21;20242;-88
2024/04/14 08:16:23;;;;;;;2.25;1.90;;;;;;;;;;6699184;21;20220;-88
2024/04/14 08:18:50;;;;;;;2.92;2.00;;;;;;;;;;6700665;21;20254;-87
2024/04/14 08:21:18;;;;;;;3.38;2.03;;;;;;;;;;6746102;21;20247;-87
2024/04/14 08:23:46;;;;;;;2.88;1.85;;;;;;;;;;6701175;21;20674;-91
2024/04/14 08:26:13;;;;;;;2.35;2.20;;;;;;;;;;6747982;21;20238;-91
2024/04/14 08:28:41;;;;;;;3.55;2.33;;;;;;;;;;6793511;21;20223;-90
2024/04/14 08:31:08;;;;;;;3.70;1.83;;;;;;;;;;6747393;21;20233;-90
2024/04/14 08:33:35;;;;;;;2.00;1.80;;;;;;;;;;6702489;21;20236;-89
2024/04/14 08:36:05;;;;;;;1.80;1.70;;;;;;;;;;6703077;21;20232;-89
2024/04/14 08:38:32;;;;;;;3.58;2.08;;;;;;;;;;6747149;21;20228;-90
2024/04/14 08:41:00;;;;;;;4.38;2.10;;;;;;;;;;6702081;21;20252;-90
2024/04/14 08:43:27;;;;;;;2.67;2.03;;;;;;;;;;6748470;21;20286;-90
2024/04/14 08:45:56;;;;;;;3.38;1.85;;;;;;;;;;6795517;21;20221;-90
2024/04/14 08:48:25;;;;;;;3.08;2.00;;;;;;;;;;6746708;21;20271;-90
2024/04/14 08:50:54;;;;;;;2.50;1.70;;;;;;;;;;6745071;21;20229;-90
2024/04/14 08:53:24;;;;;;;2.92;1.75;;;;;;;;;;6747091;21;20225;-90
2024/04/14 08:55:52;;;;;;;2.25;1.85;;;;;;;;;;6747413;21;20857;-89
2024/04/14 08:58:20;;;;;;;2.80;1.85;;;;;;;;;;6701368;21;20224;-89
2024/04/14 09:00:52;;;;;;;2.17;1.98;;;;;;;;;;6746776;21;20229;-89
2024/04/14 09:03:22;;;;;;;2.17;1.90;;;;;;;;;;6747136;21;20225;-90
2024/04/14 09:05:50;;;;;;;3.38;1.80;;;;;;;;;;6746617;21;20228;-89
2024/04/14 09:08:17;;;;;;;3.28;1.80;;;;;;;;;;6746852;21;20225;-89
2024/04/14 09:10:45;;;;;;;2.65;1.50;;;;;;;;;;6746768;21;20233;-89
2024/04/14 09:13:14;;;;;;;3.67;1.67;;;;;;;;;;6699747;21;20256;-89
2024/04/14 09:15:41;;;;;;;3.55;1.80;;;;;;;;;;6746930;21;20290;-89
2024/04/14 09:18:09;;;;;;;3.50;1.90;;;;;;;;;;6748310;21;20229;-89
2024/04/14 09:20:37;;;;;;;2.65;1.63;;;;;;;;;;6702457;21;20255;-90
2024/04/14 09:23:07;;;;;;;2.75;1.60;;;;;;;;;;6796648;21;20232;-89
2024/04/14 09:25:35;;;;;;;1.50;1.40;;;;;;;;;;6747803;21;20221;-89
2024/04/14 09:28:07;;;;;;;2.47;1.50;;;;;;;;;;6701727;21;20301;-89
2024/04/14 09:30:35;;;;;;;2.05;1.63;;;;;;;;;;6793600;21;20763;-89
2024/04/14 09:33:03;;;;;;;2.33;1.52;;;;;;;;;;6748137;21;20217;-89
2024/04/14 09:35:30;;;;;;;2.53;1.52;;;;;;;;;;6794807;21;20233;-89
2024/04/14 09:37:58;;;;;;;2.28;1.73;;;;;;;;;;6747425;21;20271;-89
2024/04/14 09:40:29;;;;;;;1.63;1.42;;;;;;;;;;6701128;21;20225;-89
2024/04/14 09:42:58;;;;;;;4.22;1.35;;;;;;;;;;6746680;21;20232;-89
2024/04/14 09:45:25;;;;;;;1.60;1.50;;;;;;;;;;6702107;21;20282;-89
2024/04/14 09:47:55;;;;;;;2.63;1.70;;;;;;;;;;6701833;21;20229;-89
2024/04/14 09:50:23;;;;;;;4.22;1.60;;;;;;;;;;6701102;21;20702;-89
2024/04/14 09:52:55;;;;;;;2.83;1.63;;;;;;;;;;6701938;21;20325;-89
2024/04/14 09:55:25;;;;;;;3.05;1.33;;;;;;;;;;6702428;21;20699;-89
2024/04/14 09:57:53;;;;;;;3.15;1.65;;;;;;;;;;6702021;21;20224;-89
2024/04/14 10:00:21;;;;;;;2.17;1.42;;;;;;;;;;6747595;21;20221;-89
2024/04/14 10:02:53;;;;;;;2.38;1.30;;;;;;;;;;6701450;21;20221;-89
2024/04/14 10:05:23;;;;;;;2.05;1.63;;;;;;;;;;6702185;21;20221;-90
2024/04/14 10:07:51;;;;;;;3.92;1.60;;;;;;;;;;6701987;21;20534;-89
2024/04/14 10:10:23;;;;;;;2.35;1.50;;;;;;;;;;6794834;21;20276;-90
2024/04/14 10:12:56;;;;;;;2.97;1.50;;;;;;;;;;6702912;21;20279;-90
2024/04/14 10:15:25;;;;;;;2.55;1.40;;;;;;;;;;6795160;21;20328;-89
2024/04/14 10:18:05;;;;;;;1.60;1.50;;;;;;;;;;6745950;21;20225;-89
2024/04/14 10:20:40;;;;;;;1.50;1.40;;;;;;;;;;6745998;21;20553;-89
2024/04/14 10:23:20;;;;;;;3.95;1.60;;;;;;;;;;6702407;21;20267;-90
2024/04/14 10:25:50;;;;;;;3.10;1.48;;;;;;;;;;6700648;21;20224;-90
2024/04/14 10:28:20;;;;;;;3.45;1.60;;;;;;;;;;6703072;21;20225;-89
2024/04/14 10:30:58;;;;;;;3.88;1.83;;;;;;;;;;6693200;21;20238;-89
2024/04/14 10:33:27;;;;;;;3.38;1.60;;;;;;;;;;6739772;21;20322;-89
2024/04/14 10:36:00;;;;;;;1.85;1.45;;;;;;;;;;6738010;21;20233;-89
2024/04/14 10:38:34;;;;;;;1.63;1.30;;;;;;;;;;6693533;21;20229;-89
2024/04/14 10:41:02;;;;;;;2.50;1.70;;;;;;;;;;6690380;21;20238;-89
2024/04/14 10:43:30;;;;;;;2.80;1.52;;;;;;;;;;6739005;21;20234;-89
2024/04/14 10:46:00;;;;;;;1.42;1.33;;;;;;;;;;6735846;21;20218;-89
2024/04/14 10:48:30;;;;;;;3.50;1.40;;;;;;;;;;6737883;21;20260;-89
2024/04/14 10:50:59;;;;;;;2.60;1.73;;;;;;;;;;6740620;21;20270;-89
2024/04/14 10:53:28;;;;;;;3.28;1.40;;;;;;;;;;6739250;21;20226;-89
2024/04/14 10:55:55;;;;;;;4.90;1.50;;;;;;;;;;6738084;21;20237;-89
2024/04/14 10:58:27;;;;;;;3.42;1.55;;;;;;;;;;6739996;21;20218;-89
2024/04/14 11:00:55;;;;;;;3.08;1.40;;;;;;;;;;6739087;21;20222;-89
2024/04/14 11:03:24;;;;;;;3.22;1.55;;;;;;;;;;6739407;21;20303;-89
2024/04/14 11:05:52;;;;;;;3.92;1.50;;;;;;;;;;6692916;21;20230;-89
2024/04/14 11:08:20;;;;;;;4.68;1.63;;;;;;;;;;6739142;21;20631;-89
2024/04/14 11:10:50;;;;;;;1.50;1.40;;;;;;;;;;6738719;21;21070;-89
2024/04/14 11:13:20;;;;;;;1.80;1.40;;;;;;;;;;6739344;21;20268;-89
2024/04/14 11:15:54;;;;;;;1.48;1.30;;;;;;;;;;6739180;21;20256;-89
2024/04/14 11:18:25;;;;;;;2.20;1.33;;;;;;;;;;6740005;21;20230;-89
2024/04/14 11:20:53;;;;;;;3.67;1.40;;;;;;;;;;6740453;21;20257;-89
2024/04/14 11:23:21;;;;;;;2.08;1.17;;;;;;;;;;6741013;21;20260;-89
2024/04/14 11:25:49;;;;;;;3.10;1.50;;;;;;;;;;6737746;21;20229;-89
2024/04/14 11:28:17;;;;;;;1.58;1.48;;;;;;;;;;6738411;21;20615;-89
2024/04/14 11:30:46;;;;;;;2.67;1.40;;;;;;;;;;6747419;21;20798;-89
2024/04/14 11:33:19;;;;;;;3.05;1.30;;;;;;;;;;6749777;21;20213;-89
2024/04/14 11:35:57;;;;;;;2.17;1.63;;;;;;;;;;6748148;21;20229;-89
2024/04/14 11:38:25;;;;;;;1.92;1.30;;;;;;;;;;6702939;21;20224;-89
2024/04/14 11:40:54;;;;;;;1.90;1.20;;;;;;;;;;6747576;21;20228;-89
2024/04/14 11:43:22;;;;;;;2.00;1.30;;;;;;;;;;6747986;21;20317;-89
2024/04/14 11:45:49;;;;;;;1.60;1.35;;;;;;;;;;6703135;21;20224;-89
2024/04/14 11:48:24;;;;;;;1.98;1.73;;;;;;;;;;6748527;21;20285;-89
2024/04/14 11:50:52;;;;;;;2.13;1.38;;;;;;;;;;6702460;21;20216;-89
2024/04/14 11:53:20;;;;;;;2.67;1.77;;;;;;;;;;6702893;21;20224;-89
2024/04/14 11:55:48;;;;;;;1.63;1.25;;;;;;;;;;6702472;21;20237;-89
2024/04/14 11:58:22;;;;;;;2.08;1.48;;;;;;;;;;6703825;21;20716;-89
2024/04/14 12:00:50;;;;;;;3.20;1.45;;;;;;;;;;6702869;21;20228;-89
2024/04/14 12:03:18;;;;;;;3.53;1.70;;;;;;;;;;6796276;21;20221;-89
2024/04/14 12:05:45;;;;;;;1.80;1.35;;;;;;;;;;6748046;21;20251;-89
2024/04/14 12:08:14;;;;;;;2.65;1.40;;;;;;;;;;6703143;21;20259;-89
2024/04/14 12:10:43;;;;;;;1.30;1.20;;;;;;;;;;6702505;21;20212;-89
2024/04/14 12:13:10;;;;;;;2.70;1.25;;;;;;;;;;6702530;21;20254;-89
2024/04/14 12:15:41;;;;;;;3.70;1.40;;;;;;;;;;6702304;21;20678;-89
2024/04/14 12:18:12;;;;;;;1.55;1.20;;;;;;;;;;6703573;21;20225;-89
2024/04/14 12:20:40;;;;;;;2.45;1.42;;;;;;;;;;6702540;21;20264;-90
2024/04/14 12:23:08;;;;;;;3.15;1.33;;;;;;;;;;6748529;21;20221;-89
2024/04/14 12:25:36;;;;;;;2.38;1.33;;;;;;;;;;6701118;21;20225;-89
2024/04/14 12:28:03;;;;;;;2.38;1.40;;;;;;;;;;6747168;21;20329;-89
2024/04/14 12:30:30;;;;;;;1.30;1.20;;;;;;;;;;6747416;21;20240;-89
2024/04/14 12:33:09;;;;;;;2.00;1.17;;;;;;;;;;6706312;21;20237;-89
2024/04/14 12:35:37;;;;;;;2.00;1.27;;;;;;;;;;6701659;21;20267;-89
2024/04/14 12:38:05;;;;;;;2.83;1.33;;;;;;;;;;6747994;21;20284;-89
2024/04/14 12:40:32;;;;;;;3.72;1.40;;;;;;;;;;6701709;21;20228;-89
2024/04/14 12:43:00;;;;;;;2.20;1.33;;;;;;;;;;6748352;21;20353;-89
2024/04/14 12:45:28;;;;;;;3.72;1.30;;;;;;;;;;6703028;21;20224;-89
2024/04/14 12:47:56;;;;;;;1.30;1.20;;;;;;;;;;6747594;21;20221;-89
2024/04/14 12:50:26;;;;;;;3.28;1.42;;;;;;;;;;6795444;21;20301;-89
2024/04/14 12:53:09;;;;;;;2.30;1.30;;;;;;;;;;6747430;21;20225;-89
2024/04/14 12:55:37;;;;;;;3.80;1.38;;;;;;;;;;6702043;21;20229;-89
2024/04/14 12:58:05;;;;;;;2.03;1.20;;;;;;;;;;6702469;21;20302;-89
2024/04/14 13:00:36;;;;;;;3.40;1.60;;;;;;;;;;6747001;21;20980;-89
2024/04/14 13:03:08;;;;;;;1.40;1.30;;;;;;;;;;6747110;21;20268;-89
2024/04/14 13:05:35;;;;;;;1.90;1.40;;;;;;;;;;6702029;21;20267;-89
2024/04/14 13:08:03;;;;;;;2.40;1.50;;;;;;;;;;6702707;21;20225;-89
2024/04/14 13:10:31;;;;;;;2.72;1.20;;;;;;;;;;6701821;21;20267;-89
2024/04/14 13:13:00;;;;;;;1.50;1.40;;;;;;;;;;6702372;21;20300;-88
2024/04/14 13:15:28;;;;;;;2.47;1.13;;;;;;;;;;6701614;21;20221;-89
2024/04/14 13:17:58;;;;;;;2.47;1.50;;;;;;;;;;6746805;21;20770;-89
2024/04/14 13:20:30;;;;;;;2.40;1.15;;;;;;;;;;6703696;21;20213;-89
2024/04/14 13:22:58;;;;;;;3.72;1.52;;;;;;;;;;6701720;21;20232;-89
2024/04/14 13:25:25;;;;;;;2.47;1.55;;;;;;;;;;6701990;21;20220;-89
2024/04/14 13:27:53;;;;;;;2.55;1.35;;;;;;;;;;6701812;21;20221;-89
2024/04/14 13:30:21;;;;;;;1.30;1.20;;;;;;;;;;6701478;21;20232;-86
2024/04/14 13:32:49;;;;;;;1.58;1.45;;;;;;;;;;6701385;21;20496;-89
2024/04/14 13:35:16;;;;;;;1.55;1.33;;;;;;;;;;6701082;21;20272;-89
2024/04/14 13:37:46;;;;;;;1.95;1.38;;;;;;;;;;6747003;21;20230;-89
2024/04/14 13:40:16;;;;;;;2.13;1.40;;;;;;;;;;6746829;21;20224;-89
2024/04/14 13:42:44;;;;;;;2.80;1.40;;;;;;;;;;6792352;21;20689;-90
2024/04/14 13:45:12;;;;;;;1.50;1.40;;;;;;;;;;6792376;21;20225;-89
2024/04/14 13:47:41;;;;;;;2.22;1.20;;;;;;;;;;6700388;21;20216;-89
2024/04/14 13:50:08;;;;;;;1.50;1.30;;;;;;;;;;6747136;21;20728;-88
2024/04/14 13:52:35;;;;;;;2.35;1.40;;;;;;;;;;6794568;21;20280;-89
2024/04/14 13:55:04;;;;;;;1.75;1.20;;;;;;;;;;6701146;21;20309;-86
2024/04/14 13:57:32;;;;;;;2.53;1.20;;;;;;;;;;6794690;21;20225;-89
2024/04/14 14:00:00;;;;;;;4.25;1.63;;;;;;;;;;6746593;21;20221;-89
2024/04/14 14:02:27;;;;;;;4.20;1.30;;;;;;;;;;6698139;21;20225;-89
2024/04/14 14:04:56;;;;;;;1.85;1.40;;;;;;;;;;6701164;21;20325;-89
2024/04/14 14:07:23;;;;;;;2.08;1.25;;;;;;;;;;6699494;21;20229;-88
2024/04/14 14:09:51;;;;;;;3.38;1.30;;;;;;;;;;6745590;21;20717;-88
2024/04/14 14:12:19;;;;;;;3.65;1.52;;;;;;;;;;6699672;21;20228;-86
2024/04/14 14:14:50;;;;;;;2.00;1.50;;;;;;;;;;6699989;21;20233;-85
2024/04/14 14:17:20;;;;;;;3.10;1.38;;;;;;;;;;6745012;21;20737;-85
2024/04/14 14:19:49;;;;;;;1.88;1.33;;;;;;;;;;6746136;21;20225;-88
2024/04/14 14:22:18;;;;;;;1.58;1.20;;;;;;;;;;6746162;21;20259;-89
2024/04/14 14:24:48;;;;;;;3.95;1.40;;;;;;;;;;6700032;21;20224;-88
2024/04/14 14:27:16;;;;;;;1.75;1.30;;;;;;;;;;6700235;21;20220;-88
2024/04/14 14:29:44;;;;;;;1.77;1.40;;;;;;;;;;6744937;21;20232;-88
2024/04/14 14:32:12;;;;;;;2.67;1.50;;;;;;;;;;6699741;21;20244;-87
2024/04/14 14:37:25;;;;;;;1.63;1.20;;;;;;;;;;6744521;21;20272;-87
2024/04/14 14:39:53;;;;;;;2.70;1.40;;;;;;;;;;6745034;21;20233;-86
2024/04/14 14:42:20;;;;;;;2.65;1.27;;;;;;;;;;6699137;21;20246;-88
2024/04/14 14:44:48;;;;;;;2.55;1.45;;;;;;;;;;6700274;21;20240;-86
2024/04/14 14:47:17;;;;;;;2.03;1.30;;;;;;;;;;6746111;21;20273;-86
2024/04/14 14:49:46;;;;;;;1.70;1.23;;;;;;;;;;6745014;21;20229;-88
2024/04/14 14:52:13;;;;;;;2.90;1.30;;;;;;;;;;6745388;21;20216;-88
2024/04/14 14:54:41;;;;;;;3.20;1.60;;;;;;;;;;6745891;21;20224;-88
2024/04/14 14:57:08;;;;;;;2.05;1.30;;;;;;;;;;6793661;21;20284;-88
2024/04/14 14:59:34;;;;;;;2.20;1.40;;;;;;;;;;6793324;21;20229;-88
2024/04/14 15:02:02;;;;;;;1.67;1.10;;;;;;;;;;6745815;21;20999;-89
2024/04/14 15:04:29;;;;;;;1.88;1.30;;;;;;;;;;6700117;21;20225;-88
2024/04/14 15:06:56;;;;;;;2.47;1.20;;;;;;;;;;6745411;21;20225;-88
2024/04/14 15:09:23;;;;;;;1.92;1.38;;;;;;;;;;6792868;21;20221;-88
2024/04/14 15:11:52;;;;;;;2.13;1.30;;;;;;;;;;6744535;21;20247;-88
2024/04/14 15:14:19;;;;;;;2.85;1.35;;;;;;;;;;6746663;21;20275;-88
2024/04/14 15:16:46;;;;;;;3.17;1.50;;;;;;;;;;6747576;21;20221;-88
2024/04/14 15:19:13;;;;;;;3.90;1.55;;;;;;;;;;6747039;21;20229;-88
2024/04/14 15:21:41;;;;;;;1.73;1.50;;;;;;;;;;6747307;21;20666;-87
2024/04/14 15:24:12;;;;;;;1.55;1.45;;;;;;;;;;6793986;21;20220;-87
2024/04/14 15:26:41;;;;;;;1.70;1.58;;;;;;;;;;6795284;21;20217;-87
2024/04/14 15:29:08;;;;;;;1.73;1.50;;;;;;;;;;6749389;21;20339;-87
2024/04/14 15:31:37;;;;;;;3.33;1.30;;;;;;;;;;6701642;21;20236;-87
2024/04/14 15:34:05;;;;;;;2.63;1.70;;;;;;;;;;6747165;21;20224;-88
2024/04/14 15:36:33;;;;;;;2.63;1.50;;;;;;;;;;6747868;21;20272;-88
2024/04/14 15:39:04;;;;;;;2.38;1.40;;;;;;;;;;6747455;21;20224;-87
2024/04/14 15:41:31;;;;;;;3.92;1.60;;;;;;;;;;6747452;21;20276;-87
2024/04/14 15:43:59;;;;;;;1.67;1.58;;;;;;;;;;6795838;21;20231;-87
2024/04/14 15:46:40;;;;;;;1.75;1.40;;;;;;;;;;6753810;21;20266;-87
2024/04/14 15:49:09;;;;;;;2.30;1.48;;;;;;;;;;6748319;21;20992;-88
2024/04/14 15:51:38;;;;;;;1.80;1.55;;;;;;;;;;6795434;21;20263;-87
2024/04/14 15:54:05;;;;;;;3.25;1.55;;;;;;;;;;6747778;21;20271;-88
2024/04/14 15:56:33;;;;;;;1.35;1.23;;;;;;;;;;6795183;21;20283;-88
2024/04/14 15:59:00;;;;;;;2.20;1.52;;;;;;;;;;6793290;21;20225;-87
2024/04/14 16:01:27;;;;;;;2.55;1.40;;;;;;;;;;6746685;21;20259;-87
2024/04/14 16:03:55;;;;;;;2.30;1.70;;;;;;;;;;6746848;21;20316;-87
2024/04/14 16:06:23;;;;;;;1.70;1.60;;;;;;;;;;6745681;21;20256;-87
2024/04/14 16:08:53;;;;;;;2.22;1.50;;;;;;;;;;6794784;21;20259;-87
2024/04/14 16:11:22;;;;;;;3.10;1.77;;;;;;;;;;6792643;21;20284;-88
2024/04/14 16:13:49;;;;;;;2.58;1.52;;;;;;;;;;6793646;21;20281;-89
2024/04/14 16:16:18;;;;;;;3.05;1.50;;;;;;;;;;6702681;21;20221;-89
2024/04/14 16:18:45;;;;;;;1.90;1.50;;;;;;;;;;6748462;21;20267;-89
2024/04/14 16:21:13;;;;;;;2.88;1.50;;;;;;;;;;6702259;21;20240;-89
2024/04/14 16:23:43;;;;;;;2.58;1.60;;;;;;;;;;6702523;21;20312;-89
2024/04/14 16:26:14;;;;;;;2.88;1.60;;;;;;;;;;6746643;21;20704;-89
2024/04/14 16:28:42;;;;;;;1.70;1.60;;;;;;;;;;6747230;21;20225;-89
2024/04/14 16:31:12;;;;;;;2.00;1.67;;;;;;;;;;6746966;21;20245;-89
2024/04/14 16:33:39;;;;;;;1.95;1.58;;;;;;;;;;6701474;21;20228;-89
2024/04/14 16:36:07;;;;;;;1.98;1.80;;;;;;;;;;6702254;21;20225;-89
2024/04/14 16:38:35;;;;;;;2.38;1.65;;;;;;;;;;6702661;21;20233;-88
2024/04/14 16:41:05;;;;;;;2.88;1.77;;;;;;;;;;6702716;21;20233;-88
2024/04/14 16:43:32;;;;;;;2.10;1.60;;;;;;;;;;6747176;21;20314;-89
2024/04/14 16:46:00;;;;;;;3.13;1.65;;;;;;;;;;6701941;21;20316;-89
2024/04/14 16:48:27;;;;;;;2.47;1.92;;;;;;;;;;6795300;21;20788;-89
2024/04/14 16:50:55;;;;;;;1.80;1.70;;;;;;;;;;6746365;21;20240;-89
2024/04/14 16:53:23;;;;;;;2.08;1.77;;;;;;;;;;6746453;21;20272;-89
2024/04/14 16:55:50;;;;;;;3.58;1.98;;;;;;;;;;6746267;21;20349;-89
2024/04/14 16:58:19;;;;;;;3.80;2.10;;;;;;;;;;6747052;21;20236;-89
2024/04/14 17:00:46;;;;;;;3.22;1.73;;;;;;;;;;6746863;21;20302;-89
2024/04/14 17:03:14;;;;;;;3.72;1.67;;;;;;;;;;6794644;21;20221;-88
2024/04/14 17:05:43;;;;;;;3.33;1.63;;;;;;;;;;6747342;21;20329;-88
2024/04/14 17:08:11;;;;;;;1.83;1.73;;;;;;;;;;6746229;21;20233;-89
2024/04/14 17:10:38;;;;;;;2.28;1.70;;;;;;;;;;6701291;21;20271;-88
2024/04/14 17:13:05;;;;;;;2.85;1.90;;;;;;;;;;6700286;21;20258;-88
2024/04/14 17:15:35;;;;;;;2.83;1.80;;;;;;;;;;6745243;21;20233;-88
2024/04/14 17:18:03;;;;;;;2.00;1.70;;;;;;;;;;6793902;21;20213;-88
2024/04/14 17:20:31;;;;;;;1.90;1.80;;;;;;;;;;6746432;21;20330;-88
2024/04/14 17:22:59;;;;;;;3.53;1.88;;;;;;;;;;6745545;21;20254;-89
2024/04/14 17:25:26;;;;;;;2.13;1.92;;;;;;;;;;6746188;21;21084;-88
2024/04/14 17:27:54;;;;;;;2.97;1.98;;;;;;;;;;6743873;21;20224;-88
2024/04/14 17:30:22;;;;;;;2.25;1.75;;;;;;;;;;6699443;21;20245;-89
2024/04/14 17:32:49;;;;;;;3.53;1.80;;;;;;;;;;6745534;21;20259;-88
2024/04/14 17:35:19;;;;;;;3.97;2.10;;;;;;;;;;6793606;21;20292;-88
2024/04/14 17:37:46;;;;;;;3.22;1.85;;;;;;;;;;6744761;21;20293;-88
2024/04/14 17:40:14;;;;;;;2.10;1.90;;;;;;;;;;6699648;21;20289;-89
2024/04/14 17:42:41;;;;;;;3.15;1.77;;;;;;;;;;6744423;21;20232;-88
2024/04/14 17:45:10;;;;;;;3.47;2.00;;;;;;;;;;6746265;21;20216;-88
2024/04/14 17:47:37;;;;;;;3.35;2.10;;;;;;;;;;6699852;21;20225;-88
2024/04/14 17:50:05;;;;;;;2.40;2.10;;;;;;;;;;6699597;21;20336;-89
2024/04/14 17:52:33;;;;;;;2.90;1.92;;;;;;;;;;6744338;21;20686;-88
2024/04/14 17:55:00;;;;;;;2.30;1.70;;;;;;;;;;6744297;21;20231;-88
2024/04/14 17:57:28;;;;;;;1.90;1.80;;;;;;;;;;6743984;21;20279;-88
2024/04/14 17:59:55;;;;;;;2.58;1.90;;;;;;;;;;6792972;21;20267;-88
2024/04/14 18:02:23;;;;;;;3.13;2.17;;;;;;;;;;6744418;21;20229;-88
2024/04/14 18:04:50;;;;;;;2.35;2.15;;;;;;;;;;6699638;21;20274;-88
2024/04/14 18:07:18;;;;;;;2.85;2.28;;;;;;;;;;6744998;21;20237;-86
2024/04/14 18:09:45;;;;;;;2.33;2.03;;;;;;;;;;6744650;21;20224;-88